sensor_id;sensor_type;location;lat;lon;timestamp;P1;durP1;ratioP1;P2;durP2;ratioP2
23146;SDS011;11742;53.532;-1.478;2022-10-17T00:01:02;0.65;;;0.52;;
23146;SDS011;11742;53.532;-1.478;2022-10-17T00:03:28;1.83;;;0.60;;
23146;SDS011;11742;53.532;-1.478;2022-10-17T00:05:54;2.70;;;0.80;;
23146;SDS011;11742;53.532;-1.478;2022-10-17T00:08:20;2.53;;;0.90;;
23146;SDS011;11742;53.532;-1.478;2022-10-17T00:10:54;1.45;;;0.98;;
23146;SDS011;11742;53.532;-1.478;2022-10-17T00:13:21;1.77;;;0.70;;
23146;SDS011;11742;53.532;-1.478;2022-10-17T00:15:47;1.08;;;0.70;;
23146;SDS011;11742;53.532;-1.478;2022-10-17T00:18:12;1.27;;;0.63;;
23146;SDS011;11742;53.532;-1.478;2022-10-17T00:20:38;1.08;;;0.50;;
23146;SDS011;11742;53.532;-1.478;2022-10-17T00:23:03;2.42;;;0.80;;
23146;SDS011;11742;53.532;-1.478;2022-10-17T00:25:29;2.30;;;1.00;;
23146;SDS011;11742;53.532;-1.478;2022-10-17T00:27:55;0.80;;;0.60;;
23146;SDS011;11742;53.532;-1.478;2022-10-17T00:30:20;1.13;;;0.40;;
23146;SDS011;11742;53.532;-1.478;2022-10-17T00:32:46;1.52;;;0.70;;
23146;SDS011;11742;53.532;-1.478;2022-10-17T00:35:12;1.58;;;0.70;;
23146;SDS011;11742;53.532;-1.478;2022-10-17T00:37:37;1.48;;;0.80;;
23146;SDS011;11742;53.532;-1.478;2022-10-17T00:40:04;0.52;;;0.52;;
23146;SDS011;11742;53.532;-1.478;2022-10-17T00:42:30;1.38;;;0.80;;
23146;SDS011;11742;53.532;-1.478;2022-10-17T00:44:59;1.52;;;0.75;;
23146;SDS011;11742;53.532;-1.478;2022-10-17T00:47:43;2.30;;;0.70;;
23146;SDS011;11742;53.532;-1.478;2022-10-17T00:50:12;1.13;;;0.60;;
23146;SDS011;11742;53.532;-1.478;2022-10-17T00:52:39;1.67;;;0.50;;
23146;SDS011;11742;53.532;-1.478;2022-10-17T00:57:42;1.17;;;0.55;;
23146;SDS011;11742;53.532;-1.478;2022-10-17T01:00:10;0.95;;;0.60;;
23146;SDS011;11742;53.532;-1.478;2022-10-17T01:02:36;1.30;;;0.57;;
23146;SDS011;11742;53.532;-1.478;2022-10-17T01:05:03;0.47;;;0.45;;
23146;SDS011;11742;53.532;-1.478;2022-10-17T01:07:30;1.33;;;0.43;;
23146;SDS011;11742;53.532;-1.478;2022-10-17T01:09:56;0.65;;;0.40;;
23146;SDS011;11742;53.532;-1.478;2022-10-17T01:15:25;0.80;;;0.50;;
23146;SDS011;11742;53.532;-1.478;2022-10-17T01:18:12;0.55;;;0.52;;
23146;SDS011;11742;53.532;-1.478;2022-10-17T01:32:19;0.95;;;0.50;;
23146;SDS011;11742;53.532;-1.478;2022-10-17T01:37:34;1.98;;;0.60;;
23146;SDS011;11742;53.532;-1.478;2022-10-17T01:42:58;0.35;;;0.35;;
23146;SDS011;11742;53.532;-1.478;2022-10-17T01:46:09;0.73;;;0.32;;
23146;SDS011;11742;53.532;-1.478;2022-10-17T01:48:39;0.52;;;0.50;;
23146;SDS011;11742;53.532;-1.478;2022-10-17T01:51:19;0.70;;;0.57;;
23146;SDS011;11742;53.532;-1.478;2022-10-17T01:53:55;0.88;;;0.40;;
23146;SDS011;11742;53.532;-1.478;2022-10-17T01:56:29;0.73;;;0.40;;
23146;SDS011;11742;53.532;-1.478;2022-10-17T01:59:02;0.45;;;0.43;;
23146;SDS011;11742;53.532;-1.478;2022-10-17T02:01:33;0.70;;;0.50;;
23146;SDS011;11742;53.532;-1.478;2022-10-17T02:04:01;0.47;;;0.40;;
23146;SDS011;11742;53.532;-1.478;2022-10-17T02:06:28;1.40;;;0.50;;
23146;SDS011;11742;53.532;-1.478;2022-10-17T02:08:53;0.47;;;0.40;;
23146;SDS011;11742;53.532;-1.478;2022-10-17T02:11:20;0.47;;;0.40;;
23146;SDS011;11742;53.532;-1.478;2022-10-17T02:24:44;0.90;;;0.40;;
23146;SDS011;11742;53.532;-1.478;2022-10-17T02:27:47;0.45;;;0.35;;
23146;SDS011;11742;53.532;-1.478;2022-10-17T02:33:12;0.73;;;0.40;;
23146;SDS011;11742;53.532;-1.478;2022-10-17T02:36:01;0.43;;;0.40;;
23146;SDS011;11742;53.532;-1.478;2022-10-17T02:38:31;1.55;;;0.50;;
23146;SDS011;11742;53.532;-1.478;2022-10-17T02:40:58;1.42;;;0.50;;
23146;SDS011;11742;53.532;-1.478;2022-10-17T02:43:27;0.45;;;0.40;;
23146;SDS011;11742;53.532;-1.478;2022-10-17T02:45:53;0.50;;;0.50;;
23146;SDS011;11742;53.532;-1.478;2022-10-17T02:48:28;2.45;;;0.50;;
23146;SDS011;11742;53.532;-1.478;2022-10-17T02:51:03;1.00;;;0.50;;
23146;SDS011;11742;53.532;-1.478;2022-10-17T02:54:08;1.45;;;0.43;;
23146;SDS011;11742;53.532;-1.478;2022-10-17T02:56:36;1.25;;;0.47;;
23146;SDS011;11742;53.532;-1.478;2022-10-17T02:59:06;0.60;;;0.40;;
23146;SDS011;11742;53.532;-1.478;2022-10-17T03:01:37;0.45;;;0.40;;
23146;SDS011;11742;53.532;-1.478;2022-10-17T03:04:12;1.15;;;0.80;;
23146;SDS011;11742;53.532;-1.478;2022-10-17T03:06:39;0.60;;;0.40;;
23146;SDS011;11742;53.532;-1.478;2022-10-17T03:09:06;0.40;;;0.30;;
23146;SDS011;11742;53.532;-1.478;2022-10-17T03:11:32;0.60;;;0.45;;
23146;SDS011;11742;53.532;-1.478;2022-10-17T03:13:58;1.05;;;0.32;;
23146;SDS011;11742;53.532;-1.478;2022-10-17T03:16:23;1.10;;;0.45;;
23146;SDS011;11742;53.532;-1.478;2022-10-17T03:18:49;0.50;;;0.40;;
23146;SDS011;11742;53.532;-1.478;2022-10-17T03:21:15;1.05;;;0.35;;
23146;SDS011;11742;53.532;-1.478;2022-10-17T03:23:40;0.77;;;0.43;;
23146;SDS011;11742;53.532;-1.478;2022-10-17T03:26:06;2.33;;;0.40;;
23146;SDS011;11742;53.532;-1.478;2022-10-17T03:28:32;0.40;;;0.40;;
23146;SDS011;11742;53.532;-1.478;2022-10-17T03:30:58;0.90;;;0.40;;
23146;SDS011;11742;53.532;-1.478;2022-10-17T03:33:24;0.47;;;0.30;;
23146;SDS011;11742;53.532;-1.478;2022-10-17T03:35:49;0.47;;;0.30;;
23146;SDS011;11742;53.532;-1.478;2022-10-17T03:38:15;1.55;;;0.30;;
23146;SDS011;11742;53.532;-1.478;2022-10-17T03:40:41;1.08;;;0.50;;
23146;SDS011;11742;53.532;-1.478;2022-10-17T03:43:06;0.35;;;0.35;;
23146;SDS011;11742;53.532;-1.478;2022-10-17T03:45:32;0.60;;;0.28;;
23146;SDS011;11742;53.532;-1.478;2022-10-17T03:47:58;0.70;;;0.30;;
23146;SDS011;11742;53.532;-1.478;2022-10-17T03:50:24;1.60;;;0.40;;
23146;SDS011;11742;53.532;-1.478;2022-10-17T03:52:49;0.45;;;0.30;;
23146;SDS011;11742;53.532;-1.478;2022-10-17T03:55:15;0.77;;;0.30;;
23146;SDS011;11742;53.532;-1.478;2022-10-17T03:57:41;0.50;;;0.40;;
23146;SDS011;11742;53.532;-1.478;2022-10-17T04:00:07;0.30;;;0.30;;
23146;SDS011;11742;53.532;-1.478;2022-10-17T04:02:33;1.27;;;0.30;;
23146;SDS011;11742;53.532;-1.478;2022-10-17T04:04:59;0.77;;;0.38;;
23146;SDS011;11742;53.532;-1.478;2022-10-17T04:07:25;0.20;;;0.20;;
23146;SDS011;11742;53.532;-1.478;2022-10-17T04:09:51;0.52;;;0.40;;
23146;SDS011;11742;53.532;-1.478;2022-10-17T04:12:17;1.00;;;0.40;;
23146;SDS011;11742;53.532;-1.478;2022-10-17T04:14:42;0.95;;;0.50;;
23146;SDS011;11742;53.532;-1.478;2022-10-17T04:17:08;0.38;;;0.30;;
23146;SDS011;11742;53.532;-1.478;2022-10-17T04:19:34;0.40;;;0.20;;
23146;SDS011;11742;53.532;-1.478;2022-10-17T04:22:00;0.40;;;0.40;;
23146;SDS011;11742;53.532;-1.478;2022-10-17T04:24:27;0.45;;;0.30;;
23146;SDS011;11742;53.532;-1.478;2022-10-17T04:26:53;0.40;;;0.30;;
23146;SDS011;11742;53.532;-1.478;2022-10-17T04:29:19;0.55;;;0.43;;
23146;SDS011;11742;53.532;-1.478;2022-10-17T04:31:44;0.60;;;0.35;;
23146;SDS011;11742;53.532;-1.478;2022-10-17T04:34:10;0.40;;;0.30;;
23146;SDS011;11742;53.532;-1.478;2022-10-17T04:36:38;0.35;;;0.30;;
23146;SDS011;11742;53.532;-1.478;2022-10-17T04:39:03;0.55;;;0.30;;
23146;SDS011;11742;53.532;-1.478;2022-10-17T04:41:30;0.20;;;0.20;;
23146;SDS011;11742;53.532;-1.478;2022-10-17T04:43:56;0.22;;;0.22;;
23146;SDS011;11742;53.532;-1.478;2022-10-17T04:46:21;0.98;;;0.40;;
23146;SDS011;11742;53.532;-1.478;2022-10-17T04:48:47;0.88;;;0.32;;
23146;SDS011;11742;53.532;-1.478;2022-10-17T04:51:13;1.58;;;0.30;;
23146;SDS011;11742;53.532;-1.478;2022-10-17T04:53:42;0.63;;;0.32;;
23146;SDS011;11742;53.532;-1.478;2022-10-17T04:56:10;1.48;;;0.30;;
23146;SDS011;11742;53.532;-1.478;2022-10-17T04:58:37;1.27;;;0.40;;
23146;SDS011;11742;53.532;-1.478;2022-10-17T05:01:05;0.73;;;0.50;;
23146;SDS011;11742;53.532;-1.478;2022-10-17T05:03:32;2.55;;;0.50;;
23146;SDS011;11742;53.532;-1.478;2022-10-17T05:05:58;1.08;;;0.50;;
23146;SDS011;11742;53.532;-1.478;2022-10-17T05:08:28;0.47;;;0.20;;
23146;SDS011;11742;53.532;-1.478;2022-10-17T05:10:53;0.45;;;0.30;;
23146;SDS011;11742;53.532;-1.478;2022-10-17T05:13:19;0.73;;;0.50;;
23146;SDS011;11742;53.532;-1.478;2022-10-17T05:15:45;1.98;;;0.47;;
23146;SDS011;11742;53.532;-1.478;2022-10-17T05:18:10;1.02;;;0.70;;
23146;SDS011;11742;53.532;-1.478;2022-10-17T05:20:36;1.30;;;0.50;;
23146;SDS011;11742;53.532;-1.478;2022-10-17T05:23:02;1.27;;;0.50;;
23146;SDS011;11742;53.532;-1.478;2022-10-17T05:25:27;1.55;;;0.60;;
23146;SDS011;11742;53.532;-1.478;2022-10-17T05:27:53;1.48;;;0.45;;
23146;SDS011;11742;53.532;-1.478;2022-10-17T05:30:19;0.98;;;0.25;;
23146;SDS011;11742;53.532;-1.478;2022-10-17T05:32:45;0.85;;;0.40;;
23146;SDS011;11742;53.532;-1.478;2022-10-17T05:35:10;0.68;;;0.68;;
23146;SDS011;11742;53.532;-1.478;2022-10-17T05:37:36;0.38;;;0.30;;
23146;SDS011;11742;53.532;-1.478;2022-10-17T05:40:02;0.60;;;0.50;;
23146;SDS011;11742;53.532;-1.478;2022-10-17T05:42:28;0.30;;;0.30;;
23146;SDS011;11742;53.532;-1.478;2022-10-17T05:44:54;2.47;;;0.70;;
23146;SDS011;11742;53.532;-1.478;2022-10-17T05:47:19;0.52;;;0.20;;
23146;SDS011;11742;53.532;-1.478;2022-10-17T05:49:45;0.75;;;0.47;;
23146;SDS011;11742;53.532;-1.478;2022-10-17T05:52:11;0.50;;;0.38;;
23146;SDS011;11742;53.532;-1.478;2022-10-17T05:54:36;0.90;;;0.40;;
23146;SDS011;11742;53.532;-1.478;2022-10-17T05:57:02;2.15;;;0.82;;
23146;SDS011;11742;53.532;-1.478;2022-10-17T05:59:28;1.45;;;0.60;;
23146;SDS011;11742;53.532;-1.478;2022-10-17T06:01:53;1.95;;;0.60;;
23146;SDS011;11742;53.532;-1.478;2022-10-17T06:04:19;1.85;;;0.55;;
23146;SDS011;11742;53.532;-1.478;2022-10-17T06:06:45;0.85;;;0.55;;
23146;SDS011;11742;53.532;-1.478;2022-10-17T06:09:10;0.95;;;0.50;;
23146;SDS011;11742;53.532;-1.478;2022-10-17T06:11:36;2.05;;;0.80;;
23146;SDS011;11742;53.532;-1.478;2022-10-17T06:14:02;1.25;;;0.50;;
23146;SDS011;11742;53.532;-1.478;2022-10-17T06:16:28;1.15;;;0.50;;
23146;SDS011;11742;53.532;-1.478;2022-10-17T06:18:53;1.38;;;0.52;;
23146;SDS011;11742;53.532;-1.478;2022-10-17T06:21:21;2.75;;;0.50;;
23146;SDS011;11742;53.532;-1.478;2022-10-17T06:23:49;1.02;;;0.43;;
23146;SDS011;11742;53.532;-1.478;2022-10-17T06:26:15;3.03;;;0.60;;
23146;SDS011;11742;53.532;-1.478;2022-10-17T06:28:40;1.75;;;0.75;;
23146;SDS011;11742;53.532;-1.478;2022-10-17T06:31:07;1.42;;;0.50;;
23146;SDS011;11742;53.532;-1.478;2022-10-17T06:33:34;0.40;;;0.28;;
23146;SDS011;11742;53.532;-1.478;2022-10-17T06:36:00;2.80;;;0.77;;
23146;SDS011;11742;53.532;-1.478;2022-10-17T06:38:27;1.27;;;0.60;;
23146;SDS011;11742;53.532;-1.478;2022-10-17T06:40:52;1.15;;;0.55;;
23146;SDS011;11742;53.532;-1.478;2022-10-17T06:43:19;2.88;;;0.55;;
23146;SDS011;11742;53.532;-1.478;2022-10-17T06:45:45;1.90;;;0.50;;
23146;SDS011;11742;53.532;-1.478;2022-10-17T06:48:11;2.03;;;0.52;;
23146;SDS011;11742;53.532;-1.478;2022-10-17T06:50:37;3.03;;;1.08;;
23146;SDS011;11742;53.532;-1.478;2022-10-17T06:53:03;1.85;;;0.50;;
23146;SDS011;11742;53.532;-1.478;2022-10-17T06:55:29;1.40;;;0.50;;
23146;SDS011;11742;53.532;-1.478;2022-10-17T06:57:56;1.38;;;0.60;;
23146;SDS011;11742;53.532;-1.478;2022-10-17T07:00:21;3.03;;;0.93;;
23146;SDS011;11742;53.532;-1.478;2022-10-17T07:02:47;1.40;;;0.88;;
23146;SDS011;11742;53.532;-1.478;2022-10-17T07:05:13;1.73;;;0.90;;
23146;SDS011;11742;53.532;-1.478;2022-10-17T07:07:39;1.35;;;0.50;;
23146;SDS011;11742;53.532;-1.478;2022-10-17T07:10:05;0.90;;;0.52;;
23146;SDS011;11742;53.532;-1.478;2022-10-17T07:12:34;2.67;;;0.40;;
23146;SDS011;11742;53.532;-1.478;2022-10-17T07:14:59;1.63;;;0.50;;
23146;SDS011;11742;53.532;-1.478;2022-10-17T07:17:28;2.03;;;0.73;;
23146;SDS011;11742;53.532;-1.478;2022-10-17T07:19:54;2.75;;;0.60;;
23146;SDS011;11742;53.532;-1.478;2022-10-17T07:22:19;1.92;;;0.50;;
23146;SDS011;11742;53.532;-1.478;2022-10-17T07:24:45;1.48;;;0.77;;
23146;SDS011;11742;53.532;-1.478;2022-10-17T07:27:11;0.95;;;0.50;;
23146;SDS011;11742;53.532;-1.478;2022-10-17T07:29:37;0.70;;;0.60;;
23146;SDS011;11742;53.532;-1.478;2022-10-17T07:32:03;2.08;;;0.60;;
23146;SDS011;11742;53.532;-1.478;2022-10-17T07:34:32;1.65;;;0.60;;
23146;SDS011;11742;53.532;-1.478;2022-10-17T07:36:58;2.10;;;0.75;;
23146;SDS011;11742;53.532;-1.478;2022-10-17T07:39:24;1.23;;;0.65;;
23146;SDS011;11742;53.532;-1.478;2022-10-17T07:41:50;1.33;;;0.50;;
23146;SDS011;11742;53.532;-1.478;2022-10-17T07:44:15;1.60;;;0.60;;
23146;SDS011;11742;53.532;-1.478;2022-10-17T07:46:41;1.90;;;0.70;;
23146;SDS011;11742;53.532;-1.478;2022-10-17T07:49:07;1.85;;;0.50;;
23146;SDS011;11742;53.532;-1.478;2022-10-17T07:51:33;2.05;;;0.60;;
23146;SDS011;11742;53.532;-1.478;2022-10-17T07:53:58;4.60;;;0.70;;
23146;SDS011;11742;53.532;-1.478;2022-10-17T07:56:24;1.58;;;0.70;;
23146;SDS011;11742;53.532;-1.478;2022-10-17T07:58:50;1.48;;;0.60;;
23146;SDS011;11742;53.532;-1.478;2022-10-17T08:01:16;2.60;;;0.70;;
23146;SDS011;11742;53.532;-1.478;2022-10-17T08:03:43;1.77;;;0.98;;
23146;SDS011;11742;53.532;-1.478;2022-10-17T08:06:09;2.03;;;0.70;;
23146;SDS011;11742;53.532;-1.478;2022-10-17T08:08:35;2.92;;;0.63;;
23146;SDS011;11742;53.532;-1.478;2022-10-17T08:11:02;3.53;;;0.85;;
23146;SDS011;11742;53.532;-1.478;2022-10-17T08:13:29;2.42;;;0.77;;
23146;SDS011;11742;53.532;-1.478;2022-10-17T08:15:59;4.85;;;0.75;;
23146;SDS011;11742;53.532;-1.478;2022-10-17T08:18:25;2.88;;;0.95;;
23146;SDS011;11742;53.532;-1.478;2022-10-17T08:20:51;1.05;;;0.65;;
23146;SDS011;11742;53.532;-1.478;2022-10-17T08:23:16;2.25;;;0.90;;
23146;SDS011;11742;53.532;-1.478;2022-10-17T08:25:42;2.30;;;0.70;;
23146;SDS011;11742;53.532;-1.478;2022-10-17T08:28:08;1.48;;;0.98;;
23146;SDS011;11742;53.532;-1.478;2022-10-17T08:30:33;2.65;;;0.70;;
23146;SDS011;11742;53.532;-1.478;2022-10-17T08:32:59;4.03;;;1.08;;
23146;SDS011;11742;53.532;-1.478;2022-10-17T08:35:24;1.15;;;0.60;;
23146;SDS011;11742;53.532;-1.478;2022-10-17T08:37:50;3.20;;;0.77;;
23146;SDS011;11742;53.532;-1.478;2022-10-17T08:40:18;1.77;;;0.80;;
23146;SDS011;11742;53.532;-1.478;2022-10-17T08:48:04;3.65;;;1.05;;
23146;SDS011;11742;53.532;-1.478;2022-10-17T08:50:41;1.83;;;0.85;;
23146;SDS011;11742;53.532;-1.478;2022-10-17T08:53:16;1.67;;;0.70;;
23146;SDS011;11742;53.532;-1.478;2022-10-17T08:55:52;3.55;;;0.98;;
23146;SDS011;11742;53.532;-1.478;2022-10-17T08:58:20;3.25;;;0.85;;
23146;SDS011;11742;53.532;-1.478;2022-10-17T09:11:38;7.85;;;1.73;;
23146;SDS011;11742;53.532;-1.478;2022-10-17T09:17:08;11.20;;;1.90;;
23146;SDS011;11742;53.532;-1.478;2022-10-17T09:25:11;17.55;;;2.78;;
23146;SDS011;11742;53.532;-1.478;2022-10-17T09:33:18;8.18;;;1.70;;
23146;SDS011;11742;53.532;-1.478;2022-10-17T09:35:46;5.57;;;1.25;;
23146;SDS011;11742;53.532;-1.478;2022-10-17T09:38:17;7.60;;;1.30;;
23146;SDS011;11742;53.532;-1.478;2022-10-17T09:40:48;6.80;;;1.40;;
23146;SDS011;11742;53.532;-1.478;2022-10-17T09:43:18;6.40;;;1.80;;
23146;SDS011;11742;53.532;-1.478;2022-10-17T09:46:18;5.93;;;1.65;;
23146;SDS011;11742;53.532;-1.478;2022-10-17T09:48:43;4.72;;;1.13;;
23146;SDS011;11742;53.532;-1.478;2022-10-17T09:51:12;6.57;;;1.33;;
23146;SDS011;11742;53.532;-1.478;2022-10-17T09:53:40;3.75;;;1.00;;
23146;SDS011;11742;53.532;-1.478;2022-10-17T09:56:13;3.40;;;0.93;;
23146;SDS011;11742;53.532;-1.478;2022-10-17T09:58:41;4.75;;;0.98;;
23146;SDS011;11742;53.532;-1.478;2022-10-17T10:01:22;4.75;;;1.17;;
23146;SDS011;11742;53.532;-1.478;2022-10-17T10:04:07;3.60;;;0.93;;
23146;SDS011;11742;53.532;-1.478;2022-10-17T10:06:38;2.47;;;0.80;;
23146;SDS011;11742;53.532;-1.478;2022-10-17T10:09:05;9.70;;;1.25;;
23146;SDS011;11742;53.532;-1.478;2022-10-17T10:11:56;1.58;;;0.68;;
23146;SDS011;11742;53.532;-1.478;2022-10-17T10:14:28;2.28;;;0.70;;
23146;SDS011;11742;53.532;-1.478;2022-10-17T10:16:58;2.83;;;0.93;;
23146;SDS011;11742;53.532;-1.478;2022-10-17T10:24:28;0.85;;;0.60;;
23146;SDS011;11742;53.532;-1.478;2022-10-17T10:26:55;2.65;;;0.98;;
23146;SDS011;11742;53.532;-1.478;2022-10-17T10:32:20;3.72;;;0.93;;
23146;SDS011;11742;53.532;-1.478;2022-10-17T10:34:52;2.45;;;0.75;;
23146;SDS011;11742;53.532;-1.478;2022-10-17T10:37:27;2.25;;;0.75;;
23146;SDS011;11742;53.532;-1.478;2022-10-17T10:40:01;2.85;;;0.65;;
23146;SDS011;11742;53.532;-1.478;2022-10-17T10:42:39;2.03;;;0.90;;
23146;SDS011;11742;53.532;-1.478;2022-10-17T10:45:22;3.83;;;0.80;;
23146;SDS011;11742;53.532;-1.478;2022-10-17T10:47:56;2.80;;;1.00;;
23146;SDS011;11742;53.532;-1.478;2022-10-17T10:50:35;4.07;;;0.70;;
23146;SDS011;11742;53.532;-1.478;2022-10-17T11:01:33;1.88;;;1.02;;
23146;SDS011;11742;53.532;-1.478;2022-10-17T11:06:54;2.97;;;0.70;;
23146;SDS011;11742;53.532;-1.478;2022-10-17T11:09:33;4.18;;;0.80;;
23146;SDS011;11742;53.532;-1.478;2022-10-17T11:20:40;1.27;;;0.60;;
23146;SDS011;11742;53.532;-1.478;2022-10-17T11:23:50;1.70;;;0.90;;
23146;SDS011;11742;53.532;-1.478;2022-10-17T11:26:28;2.35;;;0.80;;
23146;SDS011;11742;53.532;-1.478;2022-10-17T11:29:00;4.15;;;1.55;;
23146;SDS011;11742;53.532;-1.478;2022-10-17T11:31:30;3.17;;;0.80;;
23146;SDS011;11742;53.532;-1.478;2022-10-17T11:34:04;1.25;;;0.60;;
23146;SDS011;11742;53.532;-1.478;2022-10-17T11:36:37;4.28;;;1.13;;
23146;SDS011;11742;53.532;-1.478;2022-10-17T11:39:06;3.95;;;1.00;;
23146;SDS011;11742;53.532;-1.478;2022-10-17T11:41:39;5.53;;;1.15;;
23146;SDS011;11742;53.532;-1.478;2022-10-17T11:46:42;1.55;;;0.68;;
23146;SDS011;11742;53.532;-1.478;2022-10-17T11:49:17;2.85;;;0.80;;
23146;SDS011;11742;53.532;-1.478;2022-10-17T11:54:58;5.78;;;1.10;;
23146;SDS011;11742;53.532;-1.478;2022-10-17T12:00:10;10.77;;;1.65;;
23146;SDS011;11742;53.532;-1.478;2022-10-17T12:05:45;10.30;;;1.63;;
23146;SDS011;11742;53.532;-1.478;2022-10-17T12:13:46;3.70;;;1.05;;
23146;SDS011;11742;53.532;-1.478;2022-10-17T12:18:45;3.10;;;0.82;;
23146;SDS011;11742;53.532;-1.478;2022-10-17T12:35:25;5.78;;;1.13;;
23146;SDS011;11742;53.532;-1.478;2022-10-17T12:43:02;4.57;;;1.00;;
23146;SDS011;11742;53.532;-1.478;2022-10-17T12:51:18;2.50;;;0.90;;
23146;SDS011;11742;53.532;-1.478;2022-10-17T12:56:17;2.72;;;0.90;;
23146;SDS011;11742;53.532;-1.478;2022-10-17T12:58:45;3.08;;;0.70;;
23146;SDS011;11742;53.532;-1.478;2022-10-17T13:01:16;3.30;;;0.90;;
23146;SDS011;11742;53.532;-1.478;2022-10-17T13:03:46;2.33;;;0.60;;
23146;SDS011;11742;53.532;-1.478;2022-10-17T13:06:24;4.50;;;0.80;;
23146;SDS011;11742;53.532;-1.478;2022-10-17T13:09:01;3.08;;;0.80;;
23146;SDS011;11742;53.532;-1.478;2022-10-17T13:11:30;2.47;;;0.80;;
23146;SDS011;11742;53.532;-1.478;2022-10-17T13:13:59;4.18;;;0.98;;
23146;SDS011;11742;53.532;-1.478;2022-10-17T13:16:33;2.83;;;0.95;;
23146;SDS011;11742;53.532;-1.478;2022-10-17T13:19:02;3.53;;;0.80;;
23146;SDS011;11742;53.532;-1.478;2022-10-17T13:21:38;3.88;;;1.05;;
23146;SDS011;11742;53.532;-1.478;2022-10-17T13:24:46;3.95;;;1.27;;
23146;SDS011;11742;53.532;-1.478;2022-10-17T13:27:18;2.60;;;0.93;;
23146;SDS011;11742;53.532;-1.478;2022-10-17T13:29:51;2.42;;;0.95;;
23146;SDS011;11742;53.532;-1.478;2022-10-17T13:32:20;2.83;;;0.98;;
23146;SDS011;11742;53.532;-1.478;2022-10-17T13:34:46;2.53;;;0.82;;
23146;SDS011;11742;53.532;-1.478;2022-10-17T13:37:33;1.65;;;0.80;;
23146;SDS011;11742;53.532;-1.478;2022-10-17T13:40:00;5.25;;;1.02;;
23146;SDS011;11742;53.532;-1.478;2022-10-17T13:42:28;4.15;;;1.23;;
23146;SDS011;11742;53.532;-1.478;2022-10-17T13:45:00;3.65;;;0.88;;
23146;SDS011;11742;53.532;-1.478;2022-10-17T13:47:27;3.78;;;1.13;;
23146;SDS011;11742;53.532;-1.478;2022-10-17T13:49:55;4.63;;;1.10;;
23146;SDS011;11742;53.532;-1.478;2022-10-17T13:52:24;2.78;;;0.98;;
23146;SDS011;11742;53.532;-1.478;2022-10-17T13:54:52;4.00;;;0.88;;
23146;SDS011;11742;53.532;-1.478;2022-10-17T13:57:28;2.83;;;0.85;;
23146;SDS011;11742;53.532;-1.478;2022-10-17T14:00:02;3.60;;;1.20;;
23146;SDS011;11742;53.532;-1.478;2022-10-17T14:02:31;6.57;;;1.08;;
23146;SDS011;11742;53.532;-1.478;2022-10-17T14:05:03;2.38;;;0.80;;
23146;SDS011;11742;53.532;-1.478;2022-10-17T14:12:54;6.78;;;1.70;;
23146;SDS011;11742;53.532;-1.478;2022-10-17T14:15:21;3.40;;;1.20;;
23146;SDS011;11742;53.532;-1.478;2022-10-17T14:18:06;4.97;;;0.85;;
23146;SDS011;11742;53.532;-1.478;2022-10-17T14:20:33;4.00;;;1.10;;
23146;SDS011;11742;53.532;-1.478;2022-10-17T14:23:00;3.35;;;1.05;;
23146;SDS011;11742;53.532;-1.478;2022-10-17T14:25:30;3.67;;;1.25;;
23146;SDS011;11742;53.532;-1.478;2022-10-17T14:28:06;5.07;;;1.17;;
23146;SDS011;11742;53.532;-1.478;2022-10-17T14:30:46;3.33;;;1.15;;
23146;SDS011;11742;53.532;-1.478;2022-10-17T14:33:14;4.75;;;1.00;;
23146;SDS011;11742;53.532;-1.478;2022-10-17T14:35:48;4.45;;;0.98;;
23146;SDS011;11742;53.532;-1.478;2022-10-17T14:38:15;2.72;;;0.90;;
23146;SDS011;11742;53.532;-1.478;2022-10-17T14:40:49;3.33;;;0.80;;
23146;SDS011;11742;53.532;-1.478;2022-10-17T14:43:22;3.58;;;0.95;;
23146;SDS011;11742;53.532;-1.478;2022-10-17T14:45:51;5.03;;;1.35;;
23146;SDS011;11742;53.532;-1.478;2022-10-17T14:48:17;4.53;;;1.13;;
23146;SDS011;11742;53.532;-1.478;2022-10-17T14:53:40;4.63;;;1.10;;
23146;SDS011;11742;53.532;-1.478;2022-10-17T14:56:20;2.97;;;1.13;;
23146;SDS011;11742;53.532;-1.478;2022-10-17T14:58:50;2.17;;;0.80;;
23146;SDS011;11742;53.532;-1.478;2022-10-17T15:01:17;3.65;;;1.10;;
23146;SDS011;11742;53.532;-1.478;2022-10-17T15:03:43;4.50;;;1.50;;
23146;SDS011;11742;53.532;-1.478;2022-10-17T15:08:55;7.18;;;1.35;;
23146;SDS011;11742;53.532;-1.478;2022-10-17T15:11:21;5.80;;;1.10;;
23146;SDS011;11742;53.532;-1.478;2022-10-17T15:13:47;2.20;;;0.98;;
23146;SDS011;11742;53.532;-1.478;2022-10-17T15:16:23;2.40;;;0.80;;
23146;SDS011;11742;53.532;-1.478;2022-10-17T15:18:50;4.65;;;1.35;;
23146;SDS011;11742;53.532;-1.478;2022-10-17T15:21:18;2.75;;;1.15;;
23146;SDS011;11742;53.532;-1.478;2022-10-17T15:23:45;4.03;;;0.98;;
23146;SDS011;11742;53.532;-1.478;2022-10-17T15:26:16;4.05;;;1.00;;
23146;SDS011;11742;53.532;-1.478;2022-10-17T15:28:44;1.83;;;0.90;;
23146;SDS011;11742;53.532;-1.478;2022-10-17T15:31:12;2.78;;;0.95;;
23146;SDS011;11742;53.532;-1.478;2022-10-17T15:33:39;2.63;;;0.82;;
23146;SDS011;11742;53.532;-1.478;2022-10-17T15:36:27;4.25;;;1.13;;
23146;SDS011;11742;53.532;-1.478;2022-10-17T15:38:54;5.03;;;1.10;;
23146;SDS011;11742;53.532;-1.478;2022-10-17T15:41:21;2.90;;;0.90;;
23146;SDS011;11742;53.532;-1.478;2022-10-17T15:43:48;2.92;;;0.88;;
23146;SDS011;11742;53.532;-1.478;2022-10-17T15:46:18;3.72;;;1.10;;
23146;SDS011;11742;53.532;-1.478;2022-10-17T15:48:49;2.40;;;0.77;;
23146;SDS011;11742;53.532;-1.478;2022-10-17T15:51:15;3.55;;;1.00;;
23146;SDS011;11742;53.532;-1.478;2022-10-17T15:53:41;1.70;;;0.90;;
23146;SDS011;11742;53.532;-1.478;2022-10-17T15:56:07;2.42;;;0.80;;
23146;SDS011;11742;53.532;-1.478;2022-10-17T15:58:48;4.68;;;1.10;;
23146;SDS011;11742;53.532;-1.478;2022-10-17T16:01:17;3.95;;;1.48;;
23146;SDS011;11742;53.532;-1.478;2022-10-17T16:03:48;3.50;;;0.90;;
23146;SDS011;11742;53.532;-1.478;2022-10-17T16:06:15;3.15;;;0.95;;
23146;SDS011;11742;53.532;-1.478;2022-10-17T16:08:41;5.78;;;1.35;;
23146;SDS011;11742;53.532;-1.478;2022-10-17T16:11:09;3.53;;;1.10;;
23146;SDS011;11742;53.532;-1.478;2022-10-17T16:13:49;2.50;;;1.02;;
23146;SDS011;11742;53.532;-1.478;2022-10-17T16:16:17;2.50;;;0.88;;
23146;SDS011;11742;53.532;-1.478;2022-10-17T16:18:44;5.32;;;1.20;;
23146;SDS011;11742;53.532;-1.478;2022-10-17T16:21:11;6.30;;;1.42;;
23146;SDS011;11742;53.532;-1.478;2022-10-17T16:23:38;2.33;;;1.00;;
23146;SDS011;11742;53.532;-1.478;2022-10-17T16:26:05;4.70;;;1.35;;
23146;SDS011;11742;53.532;-1.478;2022-10-17T16:28:31;4.68;;;1.15;;
23146;SDS011;11742;53.532;-1.478;2022-10-17T16:30:57;4.72;;;1.08;;
23146;SDS011;11742;53.532;-1.478;2022-10-17T16:33:23;2.05;;;0.85;;
23146;SDS011;11742;53.532;-1.478;2022-10-17T16:35:49;4.00;;;1.02;;
23146;SDS011;11742;53.532;-1.478;2022-10-17T16:38:14;5.15;;;1.05;;
23146;SDS011;11742;53.532;-1.478;2022-10-17T16:40:40;3.17;;;1.25;;
23146;SDS011;11742;53.532;-1.478;2022-10-17T16:43:06;3.15;;;0.95;;
23146;SDS011;11742;53.532;-1.478;2022-10-17T16:45:34;3.80;;;1.20;;
23146;SDS011;11742;53.532;-1.478;2022-10-17T16:48:00;2.13;;;0.73;;
23146;SDS011;11742;53.532;-1.478;2022-10-17T16:50:26;5.15;;;1.17;;
23146;SDS011;11742;53.532;-1.478;2022-10-17T16:52:51;3.65;;;1.05;;
23146;SDS011;11742;53.532;-1.478;2022-10-17T16:55:17;6.97;;;1.50;;
23146;SDS011;11742;53.532;-1.478;2022-10-17T16:57:43;3.63;;;0.93;;
23146;SDS011;11742;53.532;-1.478;2022-10-17T17:00:10;3.60;;;1.40;;
23146;SDS011;11742;53.532;-1.478;2022-10-17T17:02:36;4.40;;;1.45;;
23146;SDS011;11742;53.532;-1.478;2022-10-17T17:05:02;4.45;;;1.83;;
23146;SDS011;11742;53.532;-1.478;2022-10-17T17:07:28;5.55;;;2.58;;
23146;SDS011;11742;53.532;-1.478;2022-10-17T17:09:54;5.55;;;2.35;;
23146;SDS011;11742;53.532;-1.478;2022-10-17T17:12:20;4.80;;;1.40;;
23146;SDS011;11742;53.532;-1.478;2022-10-17T17:14:46;3.42;;;1.50;;
23146;SDS011;11742;53.532;-1.478;2022-10-17T17:17:12;4.10;;;1.48;;